GW5324 Weather Reports


Display with metric or nautical units.
time (UTC)temp
F
wind
direction
speed
MPH
gust
MPH
rain 1hr
in
rain 24hr
in
rain mn
in
humidity
%
barometer
mb
20260505010004 74 206 5.0 11.0 0.00 0.00 0.00 53 1010.4
20260505004509 75 178 5.0 14.0 0.00 0.00 0.00 53 1010.4
20260505003012 75 161 4.0 11.0 0.00 0.00 0.00 53 1010.5
20260505001530 75 240 5.0 11.0 0.00 0.00 0.00 52 1010.6
20260505000034 74 290 5.0 11.0 0.00 0.00 0.00 52 1010.7
20260504234531 75 188 2.0 11.0 0.00 0.00 0.00 51 1010.8
20260504233028 74 216 4.0 8.0 0.00 0.00 0.00 51 1010.7
20260504231526 74 155 5.0 9.0 0.00 0.00 0.00 52 1011.0
20260504230028 73 217 6.0 9.0 0.00 0.00 0.00 52 1011.1
20260504224528 73 220 3.0 10.0 0.00 0.00 0.00 53 1011.4
20260504223025 73 188 2.0 10.0 0.00 0.00 0.00 54 1011.5
20260504221530 72 175 6.0 9.0 0.00 0.00 0.00 55 1011.5
20260504220029 71 225 5.0 14.0 0.00 0.00 0.00 56 1011.8
20260504214521 72 165 6.0 10.0 0.00 0.00 0.00 55 1012.0
20260504213034 70 152 4.0 9.0 0.00 0.00 0.00 55 1012.3
20260504211511 71 157 4.0 9.0 0.00 0.00 0.00 57 1012.1
20260504210018 69 126 5.0 11.0 0.00 0.00 0.00 59 1012.7
20260504204520 67 196 4.0 12.0 0.00 0.00 0.00 61 1012.8
20260504203026 67 256 8.0 11.0 0.00 0.00 0.00 61 1013.2
20260504201530 67 159 5.0 7.0 0.00 0.00 0.00 61 1013.1
20260504200037 66 210 3.0 8.0 0.00 0.00 0.00 63 1013.3
20260504194530 65 203 4.0 9.0 0.00 0.00 0.00 65 1013.5
20260504193030 63 246 2.0 10.0 0.00 0.00 0.00 67 1013.5
20260504191546 63 292 2.0 10.0 0.00 0.00 0.00 67 1013.7
20260504190027 62 219 5.0 11.0 0.00 0.00 0.00 68 1013.9
20260504184516 62 161 3.0 11.0 0.00 0.00 0.00 70 1013.9
20260504183038 61 231 5.0 9.0 0.00 0.00 0.00 69 1014.0
20260504181528 61 231 2.0 6.0 0.00 0.00 0.00 71 1013.9
20260504180026 60 250 5.0 10.0 0.00 0.00 0.00 73 1014.0
20260504174530 59 209 3.0 9.0 0.00 0.00 0.00 74 1014.1
20260504173018 59 159 4.0 8.0 0.00 0.00 0.00 73 1014.0
20260504171528 0 218 4.0 0.0 0.00 0.00 0.00 76 1014.1
20260504081508 0 0.0 0.0 0.00 0.00 0.00 1008.2
20260504050012 78 226 2.0 7.0 0.00 0.00 0.00 39 1007.0
20260504044520 0 0.0 0.0 0.00 0.00 0.00 1007.0
20260504043012 80 3.0 8.0 0.00 0.00 0.00 38 1006.9
20260504041519 81 298 3.0 8.0 0.00 0.00 0.00 36 1006.8
20260504040018 82 273 3.0 7.0 0.00 0.00 0.00 35 1006.7
20260504034516 82 269 3.0 7.0 0.00 0.00 0.00 35 1006.3
20260504033015 0 0.0 0.0 0.00 0.00 0.00 1006.1
20260504031516 0 0.0 0.0 0.00 0.00 0.00 1006.1
20260504030031 0 0.0 0.0 0.00 0.00 0.00 1006.1
20260504024513 0 0.0 0.0 0.00 0.00 0.00 1006.0
20260504023022 0 0.0 0.0 0.00 0.00 0.00 1006.0
20260504021514 0 0.0 0.0 0.00 0.00 0.00 1006.0
20260504020017 0 0.0 0.0 0.00 0.00 0.00 1005.9
20260504014531 0 0.0 0.0 0.00 0.00 0.00 1006.1
20260504013018 0 0.0 0.0 0.00 0.00 0.00 1006.2
20260504011517 0 0.0 0.0 0.00 0.00 0.00 1006.4